Time;durP1;ratioP1;P1;durP2;ratioP2;P2;SDS_P1;SDS_P2;PMS_P1;PMS_P2;Temp;Humidity;BMP_temperature;BMP_pressure;BME280_temperature;BME280_humidity;BME280_pressure;Samples;Min_cycle;Max_cycle;Signal;HPM_P1;HPM_P2
2023/07/07 00:02:08;;;;;;;40.40;24.25;;;18.70;99.90;;;;;;5033530;28;20092;-57
2023/07/07 00:04:34;;;;;;;37.22;23.33;;;18.70;99.90;;;;;;5034062;28;20040;-57
2023/07/07 00:07:00;;;;;;;40.47;25.30;;;18.70;99.90;;;;;;5033843;28;20479;-57
2023/07/07 00:09:26;;;;;;;38.05;25.10;;;18.70;99.90;;;;;;5033768;28;20529;-57
2023/07/07 00:11:53;;;;;;;36.40;25.27;;;18.80;99.90;;;;;;5033759;28;20045;-57
2023/07/07 00:14:19;;;;;;;38.35;25.00;;;18.80;99.90;;;;;;5033992;28;20033;-57
2023/07/07 00:16:45;;;;;;;39.70;25.13;;;18.70;99.90;;;;;;5037649;28;20033;-57
2023/07/07 00:19:11;;;;;;;35.42;23.45;;;18.70;99.90;;;;;;5037777;28;20028;-57
2023/07/07 00:21:38;;;;;;;40.65;25.42;;;18.80;99.90;;;;;;5037396;28;20033;-57
2023/07/07 00:24:05;;;;;;;40.38;24.58;;;18.80;99.90;;;;;;5037480;28;20049;-57
2023/07/07 00:26:32;;;;;;;42.00;24.92;;;18.70;99.90;;;;;;5037333;28;20029;-57
2023/07/07 00:28:59;;;;;;;32.38;24.20;;;18.70;99.90;;;;;;5037606;28;20030;-57
2023/07/07 00:31:25;;;;;;;38.70;26.60;;;18.70;99.90;;;;;;5037507;28;20036;-57
2023/07/07 00:33:51;;;;;;;35.00;24.83;;;18.70;99.90;;;;;;5037491;28;20041;-57
2023/07/07 00:36:17;;;;;;;38.20;24.17;;;18.70;99.90;;;;;;5037106;28;20125;-57
2023/07/07 00:38:43;;;;;;;39.15;24.90;;;18.70;99.90;;;;;;5037340;28;20117;-57
2023/07/07 00:41:10;;;;;;;39.60;25.73;;;18.80;99.90;;;;;;5037222;28;20125;-57
2023/07/07 00:43:37;;;;;;;36.80;26.05;;;18.70;99.90;;;;;;5037297;28;20050;-57
2023/07/07 00:46:04;;;;;;;39.40;24.60;;;18.70;99.90;;;;;;5037134;28;20029;-57
2023/07/07 00:48:44;;;;;;;39.85;24.58;;;18.60;99.90;;;;;;5037130;28;20083;-57
2023/07/07 00:51:20;;;;;;;40.53;25.48;;;18.70;99.90;;;;;;5037080;28;20037;-57
2023/07/07 00:53:49;;;;;;;45.22;26.98;;;18.70;99.90;;;;;;5037023;28;20029;-57
2023/07/07 00:56:25;;;;;;;34.85;25.70;;;18.60;99.90;;;;;;5036807;28;20497;-57
2023/07/07 00:58:52;;;;;;;38.47;25.23;;;18.60;99.90;;;;;;5019168;28;20372;-57
2023/07/07 01:01:18;;;;;;;38.70;25.38;;;18.70;99.90;;;;;;5035366;28;20038;-57
2023/07/07 01:03:50;;;;;;;42.40;24.98;;;18.70;99.90;;;;;;5019172;28;20036;-57
2023/07/07 01:06:19;;;;;;;42.80;23.95;;;18.70;99.90;;;;;;5036821;28;20057;-57
2023/07/07 01:08:50;;;;;;;42.15;24.95;;;18.70;99.90;;;;;;5036580;28;20045;-57
2023/07/07 01:11:19;;;;;;;34.40;24.52;;;18.70;99.90;;;;;;5036530;28;20029;-57
2023/07/07 01:13:45;;;;;;;36.00;23.48;;;18.60;99.90;;;;;;5036499;28;20041;-57
2023/07/07 01:16:27;;;;;;;37.95;23.30;;;18.60;99.90;;;;;;5036761;28;20026;-57
2023/07/07 01:18:56;;;;;;;36.75;24.98;;;18.70;99.90;;;;;;5036404;28;20033;-57
2023/07/07 01:21:29;;;;;;;41.58;25.70;;;18.70;99.90;;;;;;5036388;28;20487;-57
2023/07/07 01:24:26;;;;;;;35.10;22.77;;;18.80;99.90;;;;;;5018721;28;20037;-57
2023/07/07 01:27:04;;;;;;;33.67;23.40;;;18.70;99.90;;;;;;5035726;28;20029;-57
2023/07/07 01:30:17;;;;;;;38.33;23.75;;;18.70;99.90;;;;;;5036294;28;20108;-57
2023/07/07 01:32:44;;;;;;;32.30;22.92;;;18.70;99.90;;;;;;5028798;28;20068;-57
2023/07/07 01:35:13;;;;;;;37.67;24.00;;;18.70;99.90;;;;;;5036294;28;20025;-57
2023/07/07 01:37:39;;;;;;;38.78;24.08;;;18.80;99.90;;;;;;5036313;28;20483;-57
2023/07/07 01:40:06;;;;;;;37.25;24.13;;;18.60;99.90;;;;;;5035815;28;20036;-57
2023/07/07 01:42:41;;;;;;;35.50;22.48;;;18.60;99.90;;;;;;5036064;28;20045;-57
2023/07/07 01:45:47;;;;;;;30.88;21.10;;;18.60;99.90;;;;;;5018080;28;20030;-57
2023/07/07 01:48:56;;;;;;;34.65;22.02;;;18.60;99.90;;;;;;5032891;28;20037;-57
2023/07/07 01:51:26;;;;;;;37.80;22.58;;;18.50;99.90;;;;;;5035189;28;20038;-57
2023/07/07 01:53:53;;;;;;;35.83;22.23;;;18.50;99.90;;;;;;5035871;28;20034;-57
2023/07/07 01:56:22;;;;;;;36.53;23.63;;;18.50;99.90;;;;;;5035861;28;20029;-57
2023/07/07 01:58:48;;;;;;;34.20;23.23;;;18.50;99.90;;;;;;5017962;28;20033;-57
2023/07/07 02:01:14;;;;;;;45.47;22.60;;;18.40;99.90;;;;;;5017769;28;20128;-57
2023/07/07 02:03:41;;;;;;;28.58;21.67;;;18.40;99.90;;;;;;5035552;28;20080;-57
2023/07/07 02:06:07;;;;;;;34.60;22.50;;;18.40;99.90;;;;;;5035527;28;20104;-57
2023/07/07 02:08:34;;;;;;;38.45;21.77;;;18.40;99.90;;;;;;5035243;28;20072;-57
2023/07/07 02:11:00;;;;;;;38.75;22.83;;;18.50;99.90;;;;;;5035517;28;20030;-57
2023/07/07 02:13:26;;;;;;;34.75;22.63;;;18.40;99.90;;;;;;5035402;28;20099;-57
2023/07/07 02:15:52;;;;;;;35.13;22.15;;;18.30;99.90;;;;;;5017610;28;20061;-57
2023/07/07 02:18:20;;;;;;;38.10;22.08;;;18.20;99.90;;;;;;5017429;28;20036;-57
2023/07/07 02:20:46;;;;;;;32.92;22.52;;;18.20;99.90;;;;;;5035378;28;20034;-57
2023/07/07 02:23:12;;;;;;;39.80;23.52;;;18.20;99.90;;;;;;5035266;28;20022;-57
2023/07/07 02:25:38;;;;;;;35.42;20.33;;;18.20;99.90;;;;;;5035287;28;20041;-57
2023/07/07 02:28:04;;;;;;;38.88;22.63;;;18.20;99.90;;;;;;5035193;28;20120;-57
2023/07/07 02:30:30;;;;;;;37.13;22.98;;;18.20;99.90;;;;;;5035426;28;20025;-57
2023/07/07 02:32:57;;;;;;;35.80;22.23;;;18.20;99.90;;;;;;5035052;28;20048;-57
2023/07/07 02:35:24;;;;;;;35.72;21.80;;;18.10;99.90;;;;;;5035549;28;20025;-57
2023/07/07 02:37:50;;;;;;;33.17;22.05;;;18.10;99.90;;;;;;5034417;28;20381;-57
2023/07/07 02:40:18;;;;;;;35.80;21.98;;;18.10;99.90;;;;;;5034628;28;20030;-57
2023/07/07 02:42:46;;;;;;;31.45;21.60;;;18.00;99.90;;;;;;5033738;28;20025;-57
2023/07/07 02:45:11;;;;;;;33.85;22.08;;;18.00;99.90;;;;;;5034774;28;20109;-57
2023/07/07 02:47:37;;;;;;;32.80;22.58;;;18.00;99.90;;;;;;5034916;28;20049;-57
2023/07/07 02:50:04;;;;;;;30.40;21.33;;;18.00;99.90;;;;;;5034864;28;20519;-57
2023/07/07 02:52:30;;;;;;;36.10;22.90;;;18.10;99.90;;;;;;5034682;28;20029;-57
2023/07/07 02:54:56;;;;;;;33.75;22.98;;;18.00;99.90;;;;;;5016951;28;20063;-57
2023/07/07 02:57:22;;;;;;;32.88;23.15;;;18.00;99.90;;;;;;5016946;28;20067;-57
2023/07/07 02:59:47;;;;;;;41.17;22.92;;;18.00;99.90;;;;;;5034637;28;20041;-57
2023/07/07 03:02:14;;;;;;;28.88;21.85;;;18.00;99.90;;;;;;5034477;28;20103;-57
2023/07/07 03:04:40;;;;;;;35.28;22.52;;;18.00;99.90;;;;;;5034603;28;20057;-57
2023/07/07 03:07:06;;;;;;;34.13;22.10;;;18.00;99.90;;;;;;5034425;28;20036;-57
2023/07/07 03:09:32;;;;;;;34.03;22.10;;;18.00;99.90;;;;;;5016803;28;20534;-57
2023/07/07 03:12:01;;;;;;;30.92;21.92;;;18.10;99.90;;;;;;5016774;28;20061;-57
2023/07/07 03:14:26;;;;;;;31.65;22.15;;;18.20;99.90;;;;;;5034535;28;20054;-57
2023/07/07 03:16:56;;;;;;;31.67;21.42;;;18.10;99.90;;;;;;5016912;28;20026;-57
2023/07/07 03:19:27;;;;;;;35.72;21.08;;;18.10;99.90;;;;;;5016641;28;20025;-57
2023/07/07 03:22:14;;;;;;;33.42;21.90;;;18.10;99.90;;;;;;5033756;28;20501;-57
2023/07/07 03:24:51;;;;;;;33.15;21.48;;;18.10;99.90;;;;;;5016653;28;20041;-57
2023/07/07 03:27:28;;;;;;;31.92;21.65;;;18.20;99.90;;;;;;5016531;28;20375;-57
2023/07/07 03:29:55;;;;;;;33.00;21.33;;;18.20;99.90;;;;;;5016744;28;20036;-57
2023/07/07 03:32:21;;;;;;;31.92;21.40;;;18.10;99.90;;;;;;5033038;28;20064;-57
2023/07/07 03:34:52;;;;;;;36.33;22.08;;;18.20;99.90;;;;;;5016544;28;20029;-57
2023/07/07 03:37:22;;;;;;;36.90;22.37;;;18.20;99.90;;;;;;5017244;28;20149;-57
2023/07/07 03:39:49;;;;;;;36.30;22.50;;;18.30;99.90;;;;;;5016566;28;20802;-57
2023/07/07 03:42:14;;;;;;;33.75;22.92;;;18.20;99.90;;;;;;5016362;28;20064;-57
2023/07/07 03:44:40;;;;;;;39.63;24.70;;;18.20;99.90;;;;;;5034229;28;20033;-57
2023/07/07 03:47:06;;;;;;;34.08;22.92;;;18.20;99.90;;;;;;5034151;28;20060;-57
2023/07/07 03:49:32;;;;;;;38.35;23.42;;;18.30;99.90;;;;;;5034577;28;20065;-57
2023/07/07 03:51:59;;;;;;;35.42;22.67;;;18.30;99.90;;;;;;5020508;28;20117;-57
2023/07/07 03:54:25;;;;;;;38.65;23.52;;;18.30;99.90;;;;;;5020290;28;20030;-57
2023/07/07 03:56:51;;;;;;;40.53;22.48;;;18.40;99.90;;;;;;5037989;28;20088;-57
2023/07/07 03:59:20;;;;;;;37.83;22.85;;;18.40;99.90;;;;;;5037977;28;20375;-57
2023/07/07 04:01:48;;;;;;;37.95;24.50;;;18.40;99.90;;;;;;5019974;28;20033;-57
2023/07/07 04:04:14;;;;;;;37.83;25.23;;;18.40;99.90;;;;;;5037894;28;20025;-57
2023/07/07 04:06:39;;;;;;;39.08;23.58;;;18.40;99.90;;;;;;5037801;28;20049;-57
2023/07/07 04:09:05;;;;;;;35.67;23.98;;;18.40;99.90;;;;;;5019787;28;20045;-57
2023/07/07 04:11:31;;;;;;;39.58;23.95;;;18.40;99.90;;;;;;5020100;28;20029;-57
2023/07/07 04:13:57;;;;;;;34.42;23.58;;;18.40;99.90;;;;;;5020089;28;20120;-57
2023/07/07 04:16:25;;;;;;;39.50;24.63;;;18.50;99.90;;;;;;5019818;28;20103;-57
2023/07/07 04:18:54;;;;;;;36.70;23.08;;;18.50;99.90;;;;;;5037685;28;20026;-57
2023/07/07 04:21:24;;;;;;;37.25;23.50;;;18.60;99.90;;;;;;5037443;28;20136;-57
2023/07/07 04:23:52;;;;;;;39.97;23.70;;;18.70;99.90;;;;;;5019778;28;20064;-57
2023/07/07 04:26:19;;;;;;;33.40;23.58;;;18.70;99.90;;;;;;5036199;28;20042;-57
2023/07/07 04:28:45;;;;;;;32.47;23.15;;;18.70;99.90;;;;;;5037486;28;20030;-57
2023/07/07 04:31:13;;;;;;;32.78;22.70;;;18.80;99.90;;;;;;5037374;28;20559;-57
2023/07/07 04:33:40;;;;;;;34.17;21.80;;;18.80;99.90;;;;;;5037348;28;20025;-57
2023/07/07 04:36:08;;;;;;;29.67;22.25;;;18.90;99.90;;;;;;5037323;28;20039;-57
2023/07/07 04:38:35;;;;;;;34.50;22.25;;;18.80;99.90;;;;;;5037122;28;20063;-57
2023/07/07 04:41:14;;;;;;;32.65;21.95;;;18.90;99.90;;;;;;5037250;28;20357;-57
2023/07/07 04:43:43;;;;;;;36.50;24.52;;;18.90;99.90;;;;;;5037454;28;20026;-57
2023/07/07 04:46:12;;;;;;;34.88;23.58;;;18.90;99.90;;;;;;5036967;28;20473;-57
2023/07/07 04:48:39;;;;;;;42.42;24.55;;;19.00;99.90;;;;;;5037098;28;20026;-57
2023/07/07 04:51:07;;;;;;;39.67;24.10;;;19.20;99.90;;;;;;5037022;28;20068;-57
2023/07/07 04:53:34;;;;;;;35.15;23.02;;;19.30;99.90;;;;;;5036841;28;20030;-57
2023/07/07 04:56:02;;;;;;;38.38;25.30;;;19.30;99.90;;;;;;5037087;28;20041;-57
2023/07/07 04:58:29;;;;;;;40.72;24.58;;;19.40;99.90;;;;;;5036907;28;20044;-57
2023/07/07 05:01:26;;;;;;;33.92;23.23;;;19.50;99.90;;;;;;5035985;28;20387;-57
2023/07/07 05:03:55;;;;;;;42.20;25.73;;;19.60;99.90;;;;;;5020894;28;20172;-57
2023/07/07 05:06:23;;;;;;;73.28;47.67;;;19.70;99.90;;;;;;5036601;28;20022;-57
2023/07/07 05:08:49;;;;;;;36.30;24.20;;;19.80;99.90;;;;;;5036440;28;20045;-57
2023/07/07 05:11:18;;;;;;;36.10;24.33;;;19.90;99.90;;;;;;5036480;28;20107;-57
2023/07/07 05:13:48;;;;;;;40.50;25.60;;;19.80;99.90;;;;;;5036386;28;20111;-57
2023/07/07 05:16:20;;;;;;;43.92;25.20;;;20.00;99.90;;;;;;5036622;28;20029;-57
2023/07/07 05:18:46;;;;;;;38.40;25.27;;;20.10;99.90;;;;;;5034602;28;20032;-57
2023/07/07 05:21:14;;;;;;;34.60;23.60;;;20.20;99.90;;;;;;5036374;28;20037;-57
2023/07/07 05:23:40;;;;;;;39.60;25.55;;;20.30;99.90;;;;;;5037025;28;20375;-57
2023/07/07 05:26:07;;;;;;;38.40;25.25;;;20.40;99.90;;;;;;5036843;28;20025;-57
2023/07/07 05:28:32;;;;;;;35.80;23.85;;;20.60;99.90;;;;;;5036363;28;20034;-57
2023/07/07 05:30:59;;;;;;;44.88;26.60;;;20.70;99.90;;;;;;5036214;28;20083;-57
2023/07/07 05:33:25;;;;;;;46.20;27.58;;;20.80;99.90;;;;;;5036200;28;20165;-57
2023/07/07 05:35:54;;;;;;;50.53;29.85;;;20.80;99.90;;;;;;5036044;28;20090;-57
2023/07/07 05:38:24;;;;;;;56.97;31.50;;;21.00;99.90;;;;;;5034226;28;20060;-57
2023/07/07 05:40:50;;;;;;;55.25;31.20;;;21.00;99.90;;;;;;5018789;28;20048;-57
2023/07/07 05:43:19;;;;;;;73.22;38.22;;;20.90;99.90;;;;;;5036551;28;20029;-57
2023/07/07 05:45:45;;;;;;;73.95;38.72;;;21.20;99.90;;;;;;5028756;28;20021;-57
2023/07/07 05:48:12;;;;;;;61.15;36.33;;;21.20;99.90;;;;;;5027363;28;20053;-57
2023/07/07 05:50:40;;;;;;;65.40;36.03;;;21.30;99.90;;;;;;5015471;28;20026;-57
2023/07/07 05:53:06;;;;;;;59.97;35.00;;;21.40;99.90;;;;;;5015887;28;20037;-57
2023/07/07 05:55:34;;;;;;;72.53;40.15;;;21.40;99.90;;;;;;5016313;28;20022;-57
2023/07/07 05:58:01;;;;;;;81.78;44.10;;;21.50;99.90;;;;;;5036122;28;20029;-57
2023/07/07 06:00:29;;;;;;;88.45;46.90;;;21.60;99.90;;;;;;5036372;28;20037;-57
2023/07/07 06:02:56;;;;;;;79.60;41.33;;;21.70;99.90;;;;;;5017465;28;20033;-57
2023/07/07 06:05:23;;;;;;;82.07;44.20;;;21.70;99.90;;;;;;5034226;28;20030;-57
2023/07/07 06:07:51;;;;;;;84.50;45.38;;;21.70;99.90;;;;;;5035254;28;20045;-57
2023/07/07 06:10:19;;;;;;;89.47;45.63;;;21.70;99.90;;;;;;5035218;28;20076;-57
2023/07/07 06:12:44;;;;;;;93.47;48.92;;;21.80;99.90;;;;;;5035298;28;20033;-57
2023/07/07 06:15:11;;;;;;;92.47;47.72;;;21.80;99.90;;;;;;5035229;28;20033;-57
2023/07/07 06:17:37;;;;;;;85.38;48.00;;;22.00;99.90;;;;;;5033092;28;20033;-57
2023/07/07 06:20:03;;;;;;;79.93;45.95;;;22.10;99.90;;;;;;5033352;28;20044;-57
2023/07/07 06:22:29;;;;;;;79.38;42.05;;;22.10;99.90;;;;;;5034575;28;20033;-57
2023/07/07 06:24:55;;;;;;;80.55;42.35;;;22.00;99.90;;;;;;5032596;28;20021;-57
2023/07/07 06:27:22;;;;;;;84.40;44.55;;;22.10;99.90;;;;;;5033530;28;20048;-57
2023/07/07 06:29:47;;;;;;;77.70;42.45;;;22.30;99.90;;;;;;5035250;28;20030;-57
2023/07/07 06:32:13;;;;;;;62.85;38.35;;;22.40;99.90;;;;;;5034967;28;20028;-57
2023/07/07 06:34:39;;;;;;;61.35;35.53;;;22.60;99.90;;;;;;5034708;28;20364;-57
2023/07/07 06:37:06;;;;;;;64.57;37.85;;;22.80;99.90;;;;;;5032270;28;20025;-57
2023/07/07 06:39:32;;;;;;;65.50;37.25;;;22.90;99.90;;;;;;5034536;28;20132;-57
2023/07/07 06:42:00;;;;;;;46.15;30.30;;;23.00;99.90;;;;;;5034075;28;20116;-57
2023/07/07 06:44:32;;;;;;;53.25;31.45;;;23.00;99.90;;;;;;5019939;28;20021;-57
2023/07/07 06:47:00;;;;;;;61.53;31.02;;;23.30;99.90;;;;;;5034629;28;20341;-57
2023/07/07 06:49:26;;;;;;;55.60;28.15;;;23.30;99.90;;;;;;5033832;28;20026;-57
2023/07/07 06:51:52;;;;;;;54.63;28.80;;;23.50;99.90;;;;;;5035173;28;20032;-57
2023/07/07 06:54:18;;;;;;;46.65;28.83;;;23.50;99.90;;;;;;5034665;28;20485;-57
2023/07/07 06:56:44;;;;;;;46.72;27.67;;;23.60;99.90;;;;;;5032939;28;20072;-57
2023/07/07 06:59:10;;;;;;;40.10;25.88;;;23.80;99.90;;;;;;5033879;28;20029;-57
2023/07/07 07:01:35;;;;;;;45.00;24.30;;;23.70;99.90;;;;;;5034205;28;20047;-57
2023/07/07 07:04:01;;;;;;;41.92;25.35;;;23.90;99.90;;;;;;5034213;28;20029;-57
2023/07/07 07:06:28;;;;;;;48.20;24.88;;;24.10;99.90;;;;;;5034321;28;20017;-57
2023/07/07 07:08:54;;;;;;;42.28;24.95;;;24.20;99.90;;;;;;5034748;28;20099;-57
2023/07/07 07:11:19;;;;;;;39.80;22.42;;;24.40;99.90;;;;;;5034050;28;20029;-57
2023/07/07 07:13:47;;;;;;;40.95;21.92;;;24.60;99.90;;;;;;5034515;28;20083;-57
2023/07/07 07:16:18;;;;;;;36.30;21.30;;;24.90;99.90;;;;;;5032322;28;20057;-57
2023/07/07 07:18:44;;;;;;;33.47;22.10;;;25.10;98.80;;;;;;5030443;28;20529;-57
2023/07/07 07:21:10;;;;;;;36.33;21.77;;;25.20;96.60;;;;;;5025269;28;20029;-57
2023/07/07 07:23:36;;;;;;;42.38;21.13;;;25.40;97.50;;;;;;5023526;28;20463;-57
2023/07/07 07:26:02;;;;;;;33.28;17.60;;;25.70;95.90;;;;;;5029643;28;20031;-57
2023/07/07 07:28:28;;;;;;;34.75;15.88;;;25.80;92.00;;;;;;5034835;28;20053;-57
2023/07/07 07:30:54;;;;;;;24.55;14.60;;;26.20;92.60;;;;;;5034849;28;20025;-58
2023/07/07 07:33:22;;;;;;;23.70;13.30;;;26.30;87.50;;;;;;5034750;28;20029;-58
2023/07/07 07:35:48;;;;;;;27.55;14.73;;;26.70;90.10;;;;;;5032357;28;20116;-58
2023/07/07 07:38:20;;;;;;;20.20;12.18;;;26.70;81.80;;;;;;5026369;28;20029;-58
2023/07/07 07:40:46;;;;;;;24.13;12.07;;;26.90;77.80;;;;;;5034378;28;20044;-58
2023/07/07 07:43:12;;;;;;;18.75;11.63;;;26.90;80.40;;;;;;5028582;28;20026;-58
2023/07/07 07:45:38;;;;;;;22.23;11.93;;;26.70;77.30;;;;;;5034643;28;20025;-58
2023/07/07 07:48:05;;;;;;;39.63;12.75;;;26.90;84.40;;;;;;5033894;28;20026;-58
2023/07/07 07:50:33;;;;;;;19.58;10.35;;;27.50;83.30;;;;;;5033688;28;20034;-58
2023/07/07 07:52:59;;;;;;;18.05;10.68;;;27.70;76.90;;;;;;5027472;28;20483;-57
2023/07/07 07:55:26;;;;;;;20.08;9.80;;;28.00;75.00;;;;;;5026114;28;20587;-58
2023/07/07 07:57:52;;;;;;;19.95;9.85;;;28.20;73.20;;;;;;5033892;28;20057;-58
2023/07/07 08:00:18;;;;;;;15.70;9.98;;;28.30;76.60;;;;;;5033855;28;20391;-57
2023/07/07 08:02:44;;;;;;;29.88;11.07;;;28.40;71.20;;;;;;5033289;28;20372;-58
2023/07/07 08:05:11;;;;;;;17.77;10.20;;;28.00;73.70;;;;;;5033772;28;20026;-58
2023/07/07 08:07:38;;;;;;;16.50;9.93;;;28.00;70.70;;;;;;5033537;28;20045;-58
2023/07/07 08:10:04;;;;;;;14.02;8.70;;;28.50;70.60;;;;;;5033335;28;20060;-57
2023/07/07 08:12:31;;;;;;;18.60;8.35;;;28.40;67.90;;;;;;5033524;28;20104;-57
2023/07/07 08:14:57;;;;;;;12.90;8.10;;;28.60;68.90;;;;;;5011132;28;20080;-58
2023/07/07 08:17:23;;;;;;;16.25;7.85;;;28.50;64.70;;;;;;5027762;28;20029;-57
2023/07/07 08:19:49;;;;;;;14.75;8.82;;;28.60;66.20;;;;;;5032172;28;20501;-58
2023/07/07 08:22:21;;;;;;;15.77;9.38;;;28.50;68.40;;;;;;5034228;28;20309;-58
2023/07/07 08:24:56;;;;;;;14.63;7.75;;;28.50;67.60;;;;;;5031746;28;20026;-57
2023/07/07 08:27:24;;;;;;;14.98;8.85;;;28.10;65.40;;;;;;5016015;28;20040;-58
2023/07/07 08:29:50;;;;;;;11.48;7.30;;;27.80;65.30;;;;;;5032576;28;20021;-57
2023/07/07 08:32:22;;;;;;;17.33;8.07;;;27.70;71.50;;;;;;5033917;28;20040;-57
2023/07/07 08:34:58;;;;;;;14.75;8.80;;;27.70;69.50;;;;;;5033787;28;20029;-58
2023/07/07 08:37:25;;;;;;;12.23;8.35;;;27.40;69.40;;;;;;5032291;28;20053;-57
2023/07/07 08:39:52;;;;;;;15.40;8.90;;;27.40;72.70;;;;;;5037488;28;20040;-57
2023/07/07 08:42:21;;;;;;;14.45;8.77;;;27.30;67.70;;;;;;5037328;28;20033;-58
2023/07/07 08:44:47;;;;;;;14.85;9.13;;;27.00;71.90;;;;;;5036345;28;20060;-58
2023/07/07 08:47:41;;;;;;;15.30;9.02;;;27.00;71.70;;;;;;5035995;28;20033;-58
2023/07/07 08:50:40;;;;;;;15.10;8.77;;;27.00;72.90;;;;;;5036966;28;20087;-57
2023/07/07 08:53:31;;;;;;;19.77;9.50;;;26.80;70.90;;;;;;5036448;28;20034;-57
2023/07/07 08:56:19;;;;;;;13.82;8.18;;;26.70;75.10;;;;;;5032121;28;20105;-58
2023/07/07 08:58:57;;;;;;;14.15;7.80;;;26.40;73.80;;;;;;5022384;28;20068;-58
2023/07/07 09:01:44;;;;;;;24.10;9.95;;;26.40;74.00;;;;;;5036456;28;20044;-58
2023/07/07 09:04:19;;;;;;;24.33;9.63;;;26.20;77.40;;;;;;5036061;28;20113;-57
2023/07/07 09:07:12;;;;;;;16.15;8.60;;;26.20;77.50;;;;;;5034457;28;20681;-58
2023/07/07 09:09:47;;;;;;;16.13;8.20;;;26.10;78.90;;;;;;5034503;28;20041;-57
2023/07/07 09:12:41;;;;;;;14.65;8.63;;;26.00;81.40;;;;;;5036202;28;20066;-57
2023/07/07 09:15:20;;;;;;;14.63;8.02;;;26.10;83.10;;;;;;5035931;28;20040;-57
2023/07/07 09:17:52;;;;;;;13.60;8.03;;;26.10;79.80;;;;;;5033302;28;20033;-57
2023/07/07 09:20:23;;;;;;;21.50;9.30;;;26.20;80.70;;;;;;5031331;28;20267;-57
2023/07/07 09:22:57;;;;;;;16.08;7.68;;;26.30;82.80;;;;;;5033971;28;20049;-57
2023/07/07 09:25:40;;;;;;;21.52;8.52;;;26.20;82.30;;;;;;5033571;28;20040;-57
2023/07/07 09:28:10;;;;;;;15.32;8.23;;;26.30;76.90;;;;;;5035939;28;20026;-57
2023/07/07 09:30:51;;;;;;;13.63;7.60;;;26.30;77.90;;;;;;5035919;28;20085;-57
2023/07/07 09:33:20;;;;;;;11.82;6.90;;;26.20;74.90;;;;;;5030007;28;20038;-57
2023/07/07 09:36:15;;;;;;;12.20;7.57;;;25.90;75.70;;;;;;5032834;28;20426;-57
2023/07/07 09:39:07;;;;;;;18.92;7.80;;;26.00;77.90;;;;;;5034038;28;20028;-57
2023/07/07 09:42:01;;;;;;;16.98;7.65;;;25.90;78.70;;;;;;5034454;28;20037;-57
2023/07/07 09:44:53;;;;;;;13.70;7.57;;;25.80;78.10;;;;;;5030680;28;20487;-57
2023/07/07 09:47:43;;;;;;;13.65;6.70;;;25.90;80.20;;;;;;5030601;28;20072;-57
2023/07/07 09:50:31;;;;;;;12.77;6.28;;;26.00;82.00;;;;;;5034122;28;20032;-57
2023/07/07 09:53:14;;;;;;;13.93;6.78;;;26.10;77.00;;;;;;5033310;28;20160;-57
2023/07/07 09:55:41;;;;;;;15.73;6.95;;;26.20;76.60;;;;;;5036074;28;20448;-57
2023/07/07 09:58:29;;;;;;;15.88;7.65;;;26.20;78.70;;;;;;5035356;28;20490;-57
2023/07/07 10:00:58;;;;;;;13.10;6.68;;;26.20;76.70;;;;;;5034728;28;20424;-57
2023/07/07 10:03:40;;;;;;;17.95;6.90;;;26.10;76.40;;;;;;5036329;28;20018;-57
2023/07/07 10:06:27;;;;;;;17.75;7.55;;;26.10;76.40;;;;;;5034138;28;20533;-57
2023/07/07 10:08:53;;;;;;;13.10;6.50;;;26.10;76.40;;;;;;5035817;28;20045;-57
2023/07/07 10:11:22;;;;;;;13.52;6.00;;;26.10;77.20;;;;;;5034512;28;20031;-57
2023/07/07 10:13:53;;;;;;;14.27;7.40;;;26.20;77.80;;;;;;5036032;28;20124;-57
2023/07/07 10:16:45;;;;;;;12.65;6.78;;;26.30;79.20;;;;;;5036140;28;20033;-57
2023/07/07 10:19:16;;;;;;;13.52;6.53;;;26.40;78.00;;;;;;5030571;28;20483;-57
2023/07/07 10:21:43;;;;;;;15.27;7.20;;;26.50;78.00;;;;;;5035559;28;20033;-57
2023/07/07 10:24:14;;;;;;;14.35;6.90;;;26.60;78.90;;;;;;5033476;28;20452;-57
2023/07/07 10:26:44;;;;;;;15.10;6.07;;;26.70;77.90;;;;;;5030367;28;20032;-57
2023/07/07 10:29:15;;;;;;;12.88;6.65;;;26.60;78.20;;;;;;5033254;28;20426;-57
2023/07/07 10:31:43;;;;;;;11.82;6.88;;;26.90;79.20;;;;;;5015481;28;20037;-57
2023/07/07 10:34:32;;;;;;;11.50;6.55;;;27.10;77.90;;;;;;5015057;28;20028;-57
2023/07/07 10:36:59;;;;;;;13.60;7.20;;;27.30;78.00;;;;;;5015169;28;20065;-57
2023/07/07 10:39:30;;;;;;;12.85;6.47;;;27.30;77.30;;;;;;5015038;28;20506;-57
2023/07/07 10:41:57;;;;;;;14.15;6.78;;;27.30;75.40;;;;;;5015049;28;20033;-57
2023/07/07 10:44:24;;;;;;;11.43;6.35;;;27.50;79.40;;;;;;5028789;28;20025;-57
2023/07/07 10:46:50;;;;;;;15.45;7.20;;;27.40;77.10;;;;;;5035122;28;20029;-57
2023/07/07 10:49:19;;;;;;;14.32;6.80;;;27.70;76.30;;;;;;5035235;28;20033;-57
2023/07/07 10:52:03;;;;;;;14.13;6.32;;;27.80;78.10;;;;;;5035419;28;20049;-57
2023/07/07 10:54:32;;;;;;;10.45;5.57;;;27.70;74.00;;;;;;5035487;28;20036;-57
2023/07/07 10:57:28;;;;;;;11.20;5.45;;;28.10;76.90;;;;;;5034965;28;20034;-57
2023/07/07 11:00:03;;;;;;;16.80;5.97;;;28.40;76.00;;;;;;5033687;28;20051;-57
2023/07/07 11:02:37;;;;;;;12.50;6.30;;;28.50;72.70;;;;;;5034185;28;20068;-57
2023/07/07 11:05:15;;;;;;;14.10;6.63;;;28.40;70.70;;;;;;5034488;28;20030;-57
2023/07/07 11:08:16;;;;;;;16.85;7.38;;;28.50;72.40;;;;;;5034098;28;20037;-57
2023/07/07 11:11:02;;;;;;;16.52;7.63;;;27.90;70.70;;;;;;5016412;28;20037;-57
2023/07/07 11:13:31;;;;;;;10.57;6.28;;;28.30;72.50;;;;;;5034318;28;20411;-57
2023/07/07 11:16:36;;;;;;;13.13;6.50;;;28.50;71.30;;;;;;5034263;28;20036;-58
2023/07/07 11:19:14;;;;;;;15.35;6.60;;;28.80;70.20;;;;;;4969023;28;20048;-57
2023/07/07 11:22:09;;;;;;;11.98;6.05;;;29.00;68.20;;;;;;5034164;28;20032;-57
2023/07/07 11:25:01;;;;;;;13.20;6.13;;;29.20;68.70;;;;;;5034336;28;20083;-57
2023/07/07 11:27:39;;;;;;;10.80;5.68;;;30.00;68.30;;;;;;5034229;28;20037;-57
2023/07/07 11:30:29;;;;;;;9.65;5.82;;;30.20;63.40;;;;;;5033911;28;20037;-57
2023/07/07 11:33:46;;;;;;;16.23;6.32;;;30.20;60.30;;;;;;5035119;28;20100;-57
2023/07/07 11:36:27;;;;;;;17.45;6.00;;;30.40;62.80;;;;;;4990773;28;20041;-57
2023/07/07 11:39:22;;;;;;;11.07;5.90;;;30.20;58.40;;;;;;5034142;28;20048;-57
2023/07/07 11:42:09;;;;;;;10.15;5.90;;;29.80;57.60;;;;;;5000298;28;20463;-57
2023/07/07 11:45:18;;;;;;;9.30;5.55;;;29.30;57.70;;;;;;5033416;28;20053;-57
2023/07/07 11:48:21;;;;;;;8.98;5.43;;;29.70;58.70;;;;;;5015125;28;20034;-57
2023/07/07 11:50:59;;;;;;;8.50;4.93;;;30.40;57.40;;;;;;5023182;28;20061;-58
2023/07/07 11:54:03;;;;;;;10.52;5.28;;;30.60;54.10;;;;;;5033832;28;20025;-57
2023/07/07 11:56:56;;;;;;;8.90;5.03;;;30.70;53.10;;;;;;5014805;28;20034;-58
2023/07/07 11:59:52;;;;;;;7.70;4.85;;;30.80;51.20;;;;;;5031299;28;20030;-57
2023/07/07 12:02:38;;;;;;;7.30;5.07;;;30.90;46.80;;;;;;5030061;28;20128;-57
2023/07/07 12:05:12;;;;;;;10.23;5.15;;;31.30;49.30;;;;;;5032449;28;20102;-58
2023/07/07 12:07:47;;;;;;;9.70;5.15;;;30.70;44.70;;;;;;5027874;28;20045;-58
2023/07/07 12:10:27;;;;;;;10.80;5.80;;;30.80;42.40;;;;;;5032396;28;20037;-58
2023/07/07 12:13:02;;;;;;;10.20;4.72;;;30.10;47.10;;;;;;5038089;28;20138;-57
2023/07/07 12:15:43;;;;;;;12.43;5.93;;;29.80;44.30;;;;;;5032801;28;20097;-57
2023/07/07 12:18:30;;;;;;;7.65;4.65;;;29.90;45.20;;;;;;5035388;28;20052;-57
2023/07/07 12:21:20;;;;;;;16.38;6.72;;;29.40;46.40;;;;;;5032921;28;20055;-57
2023/07/07 12:24:03;;;;;;;15.30;5.73;;;29.40;44.90;;;;;;5037530;28;20034;-57
2023/07/07 12:26:34;;;;;;;16.58;6.57;;;29.00;43.50;;;;;;5037102;28;20068;-57
2023/07/07 12:29:03;;;;;;;8.80;5.38;;;29.10;44.90;;;;;;5031337;28;20033;-57
2023/07/07 12:31:29;;;;;;;12.15;6.65;;;28.60;42.70;;;;;;5034727;28;20502;-57
2023/07/07 12:33:56;;;;;;;19.67;6.18;;;28.70;43.80;;;;;;5037313;28;20038;-57
2023/07/07 12:36:28;;;;;;;16.95;5.82;;;28.90;45.20;;;;;;5037454;28;20395;-57
2023/07/07 12:39:00;;;;;;;12.65;8.65;;;28.80;50.40;;;;;;5037867;28;20037;-57
2023/07/07 12:41:29;;;;;;;10.65;5.55;;;28.50;47.40;;;;;;5036787;28;20040;-58
2023/07/07 12:44:04;;;;;;;10.43;4.45;;;28.60;43.70;;;;;;5037016;28;20112;-57
2023/07/07 12:46:37;;;;;;;6.97;5.03;;;28.60;48.80;;;;;;5019172;28;20086;-57
2023/07/07 12:49:07;;;;;;;7.55;5.38;;;28.40;51.00;;;;;;5036874;28;20029;-57
2023/07/07 12:51:36;;;;;;;;;;;29.10;49.10;;;;;;5036864;28;20118;-57
2023/07/07 12:54:02;;;;;;;8.32;4.78;;;29.50;44.90;;;;;;5036827;28;19916;-58
2023/07/07 12:56:30;;;;;;;5.85;4.13;;;29.30;44.20;;;;;;5036792;28;20490;-57